sensor_id;sensor_type;location;lat;lon;timestamp;P1;durP1;ratioP1;P2;durP2;ratioP2
19794;SDS011;10057;59.402;17.866;2022-07-25T00:01:10;5.33;;;2.23;;
19794;SDS011;10057;59.402;17.866;2022-07-25T00:03:39;3.17;;;2.10;;
19794;SDS011;10057;59.402;17.866;2022-07-25T00:06:08;1.97;;;1.77;;
19794;SDS011;10057;59.402;17.866;2022-07-25T00:08:43;5.30;;;2.00;;
19794;SDS011;10057;59.402;17.866;2022-07-25T00:11:10;4.83;;;2.00;;
19794;SDS011;10057;59.402;17.866;2022-07-25T00:13:36;2.87;;;2.00;;
19794;SDS011;10057;59.402;17.866;2022-07-25T00:16:03;3.73;;;2.07;;
19794;SDS011;10057;59.402;17.866;2022-07-25T00:18:31;3.27;;;2.40;;
19794;SDS011;10057;59.402;17.866;2022-07-25T00:21:00;3.37;;;2.20;;
19794;SDS011;10057;59.402;17.866;2022-07-25T00:23:27;3.17;;;2.00;;
19794;SDS011;10057;59.402;17.866;2022-07-25T00:25:54;4.73;;;2.30;;
19794;SDS011;10057;59.402;17.866;2022-07-25T00:28:21;4.10;;;2.10;;
19794;SDS011;10057;59.402;17.866;2022-07-25T00:30:48;2.37;;;2.10;;
19794;SDS011;10057;59.402;17.866;2022-07-25T00:33:15;2.37;;;1.87;;
19794;SDS011;10057;59.402;17.866;2022-07-25T00:35:42;3.50;;;1.97;;
19794;SDS011;10057;59.402;17.866;2022-07-25T00:38:08;3.73;;;2.17;;
19794;SDS011;10057;59.402;17.866;2022-07-25T00:40:35;3.70;;;1.97;;
19794;SDS011;10057;59.402;17.866;2022-07-25T00:43:02;4.20;;;2.10;;
19794;SDS011;10057;59.402;17.866;2022-07-25T00:45:32;3.60;;;1.77;;
19794;SDS011;10057;59.402;17.866;2022-07-25T00:47:59;3.40;;;2.03;;
19794;SDS011;10057;59.402;17.866;2022-07-25T00:50:25;4.57;;;2.50;;
19794;SDS011;10057;59.402;17.866;2022-07-25T00:52:52;2.83;;;2.03;;
19794;SDS011;10057;59.402;17.866;2022-07-25T00:55:19;5.23;;;2.17;;
19794;SDS011;10057;59.402;17.866;2022-07-25T00:57:47;4.17;;;1.90;;
19794;SDS011;10057;59.402;17.866;2022-07-25T01:00:14;2.97;;;2.10;;
19794;SDS011;10057;59.402;17.866;2022-07-25T01:02:42;3.67;;;2.30;;
19794;SDS011;10057;59.402;17.866;2022-07-25T01:05:09;3.87;;;2.00;;
19794;SDS011;10057;59.402;17.866;2022-07-25T01:07:37;4.70;;;2.43;;
19794;SDS011;10057;59.402;17.866;2022-07-25T01:10:04;2.63;;;2.07;;
19794;SDS011;10057;59.402;17.866;2022-07-25T01:12:42;4.00;;;2.03;;
19794;SDS011;10057;59.402;17.866;2022-07-25T01:15:22;3.83;;;2.07;;
19794;SDS011;10057;59.402;17.866;2022-07-25T01:17:49;4.53;;;2.33;;
19794;SDS011;10057;59.402;17.866;2022-07-25T01:20:26;4.43;;;2.30;;
19794;SDS011;10057;59.402;17.866;2022-07-25T01:22:54;3.53;;;2.13;;
19794;SDS011;10057;59.402;17.866;2022-07-25T01:25:21;3.17;;;2.20;;
19794;SDS011;10057;59.402;17.866;2022-07-25T01:27:49;4.50;;;2.13;;
19794;SDS011;10057;59.402;17.866;2022-07-25T01:30:21;5.40;;;2.33;;
19794;SDS011;10057;59.402;17.866;2022-07-25T01:32:49;3.33;;;2.40;;
19794;SDS011;10057;59.402;17.866;2022-07-25T01:35:16;2.67;;;2.00;;
19794;SDS011;10057;59.402;17.866;2022-07-25T01:37:42;4.57;;;2.50;;
19794;SDS011;10057;59.402;17.866;2022-07-25T01:40:11;3.87;;;2.30;;
19794;SDS011;10057;59.402;17.866;2022-07-25T01:42:39;4.80;;;2.60;;
19794;SDS011;10057;59.402;17.866;2022-07-25T01:45:07;4.20;;;2.90;;
19794;SDS011;10057;59.402;17.866;2022-07-25T01:47:34;3.73;;;2.50;;
19794;SDS011;10057;59.402;17.866;2022-07-25T01:50:00;2.93;;;2.30;;
19794;SDS011;10057;59.402;17.866;2022-07-25T01:52:27;5.33;;;2.73;;
19794;SDS011;10057;59.402;17.866;2022-07-25T01:54:54;6.87;;;2.57;;
19794;SDS011;10057;59.402;17.866;2022-07-25T01:57:21;3.50;;;2.50;;
19794;SDS011;10057;59.402;17.866;2022-07-25T01:59:55;4.23;;;2.77;;
19794;SDS011;10057;59.402;17.866;2022-07-25T02:02:21;3.30;;;2.40;;
19794;SDS011;10057;59.402;17.866;2022-07-25T02:04:48;5.50;;;2.40;;
19794;SDS011;10057;59.402;17.866;2022-07-25T02:07:15;6.27;;;2.67;;
19794;SDS011;10057;59.402;17.866;2022-07-25T02:09:42;7.17;;;2.50;;
19794;SDS011;10057;59.402;17.866;2022-07-25T02:12:08;3.57;;;2.43;;
19794;SDS011;10057;59.402;17.866;2022-07-25T02:14:35;3.30;;;2.43;;
19794;SDS011;10057;59.402;17.866;2022-07-25T02:17:02;4.00;;;2.50;;
19794;SDS011;10057;59.402;17.866;2022-07-25T02:19:29;3.70;;;2.33;;
19794;SDS011;10057;59.402;17.866;2022-07-25T02:21:55;5.10;;;2.73;;
19794;SDS011;10057;59.402;17.866;2022-07-25T02:24:22;3.37;;;2.43;;
19794;SDS011;10057;59.402;17.866;2022-07-25T02:26:48;4.50;;;2.50;;
19794;SDS011;10057;59.402;17.866;2022-07-25T02:29:15;4.10;;;2.30;;
19794;SDS011;10057;59.402;17.866;2022-07-25T02:31:47;3.87;;;2.57;;
19794;SDS011;10057;59.402;17.866;2022-07-25T02:34:13;2.83;;;2.40;;
19794;SDS011;10057;59.402;17.866;2022-07-25T02:36:40;4.87;;;2.40;;
19794;SDS011;10057;59.402;17.866;2022-07-25T02:39:07;4.20;;;2.43;;
19794;SDS011;10057;59.402;17.866;2022-07-25T02:41:33;6.63;;;2.47;;
19794;SDS011;10057;59.402;17.866;2022-07-25T02:44:00;5.90;;;2.30;;
19794;SDS011;10057;59.402;17.866;2022-07-25T02:46:27;4.37;;;2.50;;
19794;SDS011;10057;59.402;17.866;2022-07-25T02:48:53;4.30;;;2.30;;
19794;SDS011;10057;59.402;17.866;2022-07-25T02:51:20;5.17;;;2.60;;
19794;SDS011;10057;59.402;17.866;2022-07-25T02:53:47;4.50;;;2.73;;
19794;SDS011;10057;59.402;17.866;2022-07-25T02:56:24;5.30;;;2.30;;
19794;SDS011;10057;59.402;17.866;2022-07-25T02:58:55;3.40;;;2.20;;
19794;SDS011;10057;59.402;17.866;2022-07-25T03:01:21;5.73;;;2.47;;
19794;SDS011;10057;59.402;17.866;2022-07-25T03:03:48;4.17;;;2.40;;
19794;SDS011;10057;59.402;17.866;2022-07-25T03:06:15;5.90;;;2.57;;
19794;SDS011;10057;59.402;17.866;2022-07-25T03:08:42;4.37;;;2.50;;
19794;SDS011;10057;59.402;17.866;2022-07-25T03:11:09;3.40;;;2.30;;
19794;SDS011;10057;59.402;17.866;2022-07-25T03:13:36;3.20;;;2.40;;
19794;SDS011;10057;59.402;17.866;2022-07-25T03:16:03;4.10;;;2.30;;
19794;SDS011;10057;59.402;17.866;2022-07-25T03:18:30;2.50;;;2.20;;
19794;SDS011;10057;59.402;17.866;2022-07-25T03:20:56;5.60;;;2.40;;
19794;SDS011;10057;59.402;17.866;2022-07-25T03:23:23;3.87;;;2.50;;
19794;SDS011;10057;59.402;17.866;2022-07-25T03:25:53;3.80;;;2.40;;
19794;SDS011;10057;59.402;17.866;2022-07-25T03:28:20;5.17;;;2.50;;
19794;SDS011;10057;59.402;17.866;2022-07-25T03:30:46;5.50;;;2.40;;
19794;SDS011;10057;59.402;17.866;2022-07-25T03:33:13;3.63;;;2.50;;
19794;SDS011;10057;59.402;17.866;2022-07-25T03:35:39;6.13;;;2.83;;
19794;SDS011;10057;59.402;17.866;2022-07-25T03:38:06;3.30;;;2.47;;
19794;SDS011;10057;59.402;17.866;2022-07-25T03:40:33;5.33;;;2.37;;
19794;SDS011;10057;59.402;17.866;2022-07-25T03:43:01;4.90;;;2.60;;
19794;SDS011;10057;59.402;17.866;2022-07-25T03:45:28;4.53;;;2.40;;
19794;SDS011;10057;59.402;17.866;2022-07-25T03:47:55;4.07;;;2.37;;
19794;SDS011;10057;59.402;17.866;2022-07-25T03:50:22;4.67;;;2.30;;
19794;SDS011;10057;59.402;17.866;2022-07-25T03:52:48;3.90;;;2.60;;
19794;SDS011;10057;59.402;17.866;2022-07-25T03:55:15;2.90;;;2.40;;
19794;SDS011;10057;59.402;17.866;2022-07-25T03:57:42;6.17;;;2.63;;
19794;SDS011;10057;59.402;17.866;2022-07-25T04:00:09;3.60;;;2.63;;
19794;SDS011;10057;59.402;17.866;2022-07-25T04:02:37;3.80;;;2.40;;
19794;SDS011;10057;59.402;17.866;2022-07-25T04:05:04;5.83;;;2.60;;
19794;SDS011;10057;59.402;17.866;2022-07-25T04:07:33;3.33;;;2.33;;
19794;SDS011;10057;59.402;17.866;2022-07-25T04:10:00;5.33;;;2.60;;
19794;SDS011;10057;59.402;17.866;2022-07-25T04:12:27;5.13;;;2.70;;
19794;SDS011;10057;59.402;17.866;2022-07-25T04:14:54;5.40;;;2.70;;
19794;SDS011;10057;59.402;17.866;2022-07-25T04:17:20;4.10;;;2.50;;
19794;SDS011;10057;59.402;17.866;2022-07-25T04:19:50;4.90;;;2.70;;
19794;SDS011;10057;59.402;17.866;2022-07-25T04:22:17;8.13;;;2.80;;
19794;SDS011;10057;59.402;17.866;2022-07-25T04:24:43;4.63;;;2.80;;
19794;SDS011;10057;59.402;17.866;2022-07-25T04:27:10;4.70;;;2.80;;
19794;SDS011;10057;59.402;17.866;2022-07-25T04:29:36;4.53;;;2.60;;
19794;SDS011;10057;59.402;17.866;2022-07-25T04:32:03;5.37;;;2.80;;
19794;SDS011;10057;59.402;17.866;2022-07-25T04:34:31;4.10;;;2.60;;
19794;SDS011;10057;59.402;17.866;2022-07-25T04:36:57;3.93;;;2.60;;
19794;SDS011;10057;59.402;17.866;2022-07-25T04:39:24;4.73;;;2.80;;
19794;SDS011;10057;59.402;17.866;2022-07-25T04:41:51;6.30;;;2.67;;
19794;SDS011;10057;59.402;17.866;2022-07-25T04:44:17;3.80;;;2.50;;
19794;SDS011;10057;59.402;17.866;2022-07-25T04:46:44;5.20;;;2.53;;
19794;SDS011;10057;59.402;17.866;2022-07-25T04:49:11;3.03;;;2.63;;
19794;SDS011;10057;59.402;17.866;2022-07-25T04:51:37;3.23;;;2.50;;
19794;SDS011;10057;59.402;17.866;2022-07-25T04:54:04;6.10;;;2.90;;
19794;SDS011;10057;59.402;17.866;2022-07-25T04:56:32;3.60;;;2.70;;
19794;SDS011;10057;59.402;17.866;2022-07-25T04:58:58;6.50;;;2.87;;
19794;SDS011;10057;59.402;17.866;2022-07-25T05:01:32;6.13;;;3.00;;
19794;SDS011;10057;59.402;17.866;2022-07-25T05:03:59;4.50;;;2.80;;
19794;SDS011;10057;59.402;17.866;2022-07-25T05:06:25;4.30;;;2.53;;
19794;SDS011;10057;59.402;17.866;2022-07-25T05:08:52;3.40;;;2.83;;
19794;SDS011;10057;59.402;17.866;2022-07-25T05:11:18;4.17;;;2.60;;
19794;SDS011;10057;59.402;17.866;2022-07-25T05:13:45;3.80;;;2.70;;
19794;SDS011;10057;59.402;17.866;2022-07-25T05:16:12;4.13;;;2.83;;
19794;SDS011;10057;59.402;17.866;2022-07-25T05:18:39;4.37;;;2.77;;
19794;SDS011;10057;59.402;17.866;2022-07-25T05:21:08;3.57;;;2.63;;
19794;SDS011;10057;59.402;17.866;2022-07-25T05:23:35;3.30;;;2.70;;
19794;SDS011;10057;59.402;17.866;2022-07-25T05:26:02;5.10;;;3.00;;
19794;SDS011;10057;59.402;17.866;2022-07-25T05:28:29;3.47;;;2.60;;
19794;SDS011;10057;59.402;17.866;2022-07-25T05:30:55;5.97;;;3.13;;
19794;SDS011;10057;59.402;17.866;2022-07-25T05:33:22;5.60;;;3.00;;
19794;SDS011;10057;59.402;17.866;2022-07-25T05:35:48;9.83;;;2.73;;
19794;SDS011;10057;59.402;17.866;2022-07-25T05:38:15;5.60;;;2.70;;
19794;SDS011;10057;59.402;17.866;2022-07-25T05:40:42;5.60;;;2.90;;
19794;SDS011;10057;59.402;17.866;2022-07-25T05:43:09;4.53;;;2.97;;
19794;SDS011;10057;59.402;17.866;2022-07-25T05:45:35;4.23;;;2.80;;
19794;SDS011;10057;59.402;17.866;2022-07-25T05:48:02;4.07;;;2.40;;
19794;SDS011;10057;59.402;17.866;2022-07-25T05:50:29;5.43;;;2.90;;
19794;SDS011;10057;59.402;17.866;2022-07-25T05:52:56;4.03;;;2.87;;
19794;SDS011;10057;59.402;17.866;2022-07-25T05:55:23;6.27;;;3.17;;
19794;SDS011;10057;59.402;17.866;2022-07-25T05:57:50;4.73;;;3.07;;
19794;SDS011;10057;59.402;17.866;2022-07-25T06:00:16;5.00;;;3.00;;
19794;SDS011;10057;59.402;17.866;2022-07-25T06:02:43;4.63;;;2.93;;
19794;SDS011;10057;59.402;17.866;2022-07-25T06:05:10;3.93;;;3.07;;
19794;SDS011;10057;59.402;17.866;2022-07-25T06:07:36;4.20;;;3.10;;
19794;SDS011;10057;59.402;17.866;2022-07-25T06:10:03;5.43;;;3.13;;
19794;SDS011;10057;59.402;17.866;2022-07-25T06:12:30;5.07;;;3.00;;
19794;SDS011;10057;59.402;17.866;2022-07-25T06:15:01;5.83;;;3.03;;
19794;SDS011;10057;59.402;17.866;2022-07-25T06:17:29;5.50;;;3.10;;
19794;SDS011;10057;59.402;17.866;2022-07-25T06:19:57;3.90;;;3.03;;
19794;SDS011;10057;59.402;17.866;2022-07-25T06:22:24;3.60;;;3.00;;
19794;SDS011;10057;59.402;17.866;2022-07-25T06:24:51;5.07;;;3.17;;
19794;SDS011;10057;59.402;17.866;2022-07-25T06:27:18;4.33;;;3.03;;
19794;SDS011;10057;59.402;17.866;2022-07-25T06:29:48;5.83;;;2.97;;
19794;SDS011;10057;59.402;17.866;2022-07-25T06:32:14;4.97;;;3.27;;
19794;SDS011;10057;59.402;17.866;2022-07-25T06:34:41;6.40;;;3.47;;
19794;SDS011;10057;59.402;17.866;2022-07-25T06:37:08;4.93;;;3.20;;
19794;SDS011;10057;59.402;17.866;2022-07-25T06:39:35;6.30;;;3.07;;
19794;SDS011;10057;59.402;17.866;2022-07-25T06:42:01;4.23;;;3.10;;
19794;SDS011;10057;59.402;17.866;2022-07-25T06:44:33;5.50;;;2.90;;
19794;SDS011;10057;59.402;17.866;2022-07-25T06:47:00;10.47;;;3.33;;
19794;SDS011;10057;59.402;17.866;2022-07-25T06:49:27;5.97;;;3.30;;
19794;SDS011;10057;59.402;17.866;2022-07-25T06:51:54;4.27;;;3.10;;
19794;SDS011;10057;59.402;17.866;2022-07-25T06:54:21;5.03;;;2.90;;
19794;SDS011;10057;59.402;17.866;2022-07-25T06:56:48;5.47;;;3.10;;
19794;SDS011;10057;59.402;17.866;2022-07-25T06:59:14;6.97;;;3.40;;
19794;SDS011;10057;59.402;17.866;2022-07-25T07:01:41;5.93;;;3.40;;
19794;SDS011;10057;59.402;17.866;2022-07-25T07:04:11;11.27;;;4.63;;
19794;SDS011;10057;59.402;17.866;2022-07-25T07:06:37;6.50;;;3.50;;
19794;SDS011;10057;59.402;17.866;2022-07-25T07:09:05;7.40;;;3.37;;
19794;SDS011;10057;59.402;17.866;2022-07-25T07:11:33;4.33;;;3.20;;
19794;SDS011;10057;59.402;17.866;2022-07-25T07:14:00;6.83;;;3.50;;
19794;SDS011;10057;59.402;17.866;2022-07-25T07:16:29;5.73;;;3.60;;
19794;SDS011;10057;59.402;17.866;2022-07-25T07:18:56;4.90;;;3.50;;
19794;SDS011;10057;59.402;17.866;2022-07-25T07:21:23;4.00;;;3.10;;
19794;SDS011;10057;59.402;17.866;2022-07-25T07:23:51;4.67;;;3.00;;
19794;SDS011;10057;59.402;17.866;2022-07-25T07:26:19;8.17;;;3.53;;
19794;SDS011;10057;59.402;17.866;2022-07-25T07:28:45;7.00;;;3.23;;
19794;SDS011;10057;59.402;17.866;2022-07-25T07:31:12;8.37;;;3.07;;
19794;SDS011;10057;59.402;17.866;2022-07-25T07:33:43;6.20;;;3.37;;
19794;SDS011;10057;59.402;17.866;2022-07-25T07:36:09;4.73;;;3.40;;
19794;SDS011;10057;59.402;17.866;2022-07-25T07:38:36;8.00;;;3.50;;
19794;SDS011;10057;59.402;17.866;2022-07-25T07:41:03;7.10;;;3.30;;
19794;SDS011;10057;59.402;17.866;2022-07-25T07:43:29;5.27;;;3.63;;
19794;SDS011;10057;59.402;17.866;2022-07-25T07:45:57;5.77;;;3.17;;
19794;SDS011;10057;59.402;17.866;2022-07-25T07:48:29;4.40;;;3.50;;
19794;SDS011;10057;59.402;17.866;2022-07-25T07:50:57;6.67;;;3.40;;
19794;SDS011;10057;59.402;17.866;2022-07-25T07:53:25;5.27;;;3.77;;
19794;SDS011;10057;59.402;17.866;2022-07-25T07:56:12;5.83;;;3.37;;
19794;SDS011;10057;59.402;17.866;2022-07-25T07:58:41;10.40;;;3.47;;
19794;SDS011;10057;59.402;17.866;2022-07-25T08:01:08;11.93;;;4.40;;
19794;SDS011;10057;59.402;17.866;2022-07-25T08:03:35;6.77;;;3.37;;
19794;SDS011;10057;59.402;17.866;2022-07-25T08:06:03;6.63;;;4.17;;
19794;SDS011;10057;59.402;17.866;2022-07-25T08:08:29;11.90;;;5.37;;
19794;SDS011;10057;59.402;17.866;2022-07-25T08:10:57;11.27;;;3.87;;
19794;SDS011;10057;59.402;17.866;2022-07-25T08:13:27;6.65;;;3.85;;
19794;SDS011;10057;59.402;17.866;2022-07-25T08:15:56;5.20;;;3.33;;
19794;SDS011;10057;59.402;17.866;2022-07-25T08:18:25;6.35;;;3.67;;
19794;SDS011;10057;59.402;17.866;2022-07-25T08:20:55;9.25;;;3.42;;
19794;SDS011;10057;59.402;17.866;2022-07-25T08:23:22;4.72;;;3.42;;
19794;SDS011;10057;59.402;17.866;2022-07-25T08:25:50;8.02;;;3.72;;
19794;SDS011;10057;59.402;17.866;2022-07-25T08:28:17;6.80;;;3.67;;
19794;SDS011;10057;59.402;17.866;2022-07-25T08:30:45;7.67;;;3.40;;
19794;SDS011;10057;59.402;17.866;2022-07-25T08:33:12;10.77;;;3.80;;
19794;SDS011;10057;59.402;17.866;2022-07-25T08:35:48;4.95;;;2.95;;
19794;SDS011;10057;59.402;17.866;2022-07-25T08:38:20;8.10;;;3.47;;
19794;SDS011;10057;59.402;17.866;2022-07-25T08:40:49;7.70;;;3.45;;
19794;SDS011;10057;59.402;17.866;2022-07-25T08:43:17;5.57;;;3.65;;
19794;SDS011;10057;59.402;17.866;2022-07-25T08:45:51;5.25;;;3.65;;
19794;SDS011;10057;59.402;17.866;2022-07-25T08:48:20;4.72;;;3.20;;
19794;SDS011;10057;59.402;17.866;2022-07-25T08:50:49;5.30;;;3.30;;
19794;SDS011;10057;59.402;17.866;2022-07-25T08:53:17;9.98;;;3.30;;
19794;SDS011;10057;59.402;17.866;2022-07-25T08:56:05;5.78;;;3.28;;
19794;SDS011;10057;59.402;17.866;2022-07-25T08:58:42;4.82;;;3.45;;
19794;SDS011;10057;59.402;17.866;2022-07-25T09:01:10;10.30;;;3.80;;
19794;SDS011;10057;59.402;17.866;2022-07-25T09:03:38;4.32;;;3.00;;
19794;SDS011;10057;59.402;17.866;2022-07-25T09:06:18;5.10;;;3.38;;
19794;SDS011;10057;59.402;17.866;2022-07-25T09:08:56;5.30;;;3.20;;
19794;SDS011;10057;59.402;17.866;2022-07-25T09:11:28;5.97;;;3.45;;
19794;SDS011;10057;59.402;17.866;2022-07-25T09:14:00;9.20;;;3.50;;
19794;SDS011;10057;59.402;17.866;2022-07-25T09:16:42;7.28;;;3.38;;
19794;SDS011;10057;59.402;17.866;2022-07-25T09:19:11;6.65;;;3.10;;
19794;SDS011;10057;59.402;17.866;2022-07-25T09:21:42;5.18;;;3.13;;
19794;SDS011;10057;59.402;17.866;2022-07-25T09:24:11;9.38;;;3.40;;
19794;SDS011;10057;59.402;17.866;2022-07-25T09:26:41;5.70;;;3.78;;
19794;SDS011;10057;59.402;17.866;2022-07-25T09:29:14;4.88;;;3.10;;
19794;SDS011;10057;59.402;17.866;2022-07-25T09:31:46;4.50;;;3.45;;
19794;SDS011;10057;59.402;17.866;2022-07-25T09:34:27;6.30;;;3.55;;
19794;SDS011;10057;59.402;17.866;2022-07-25T09:37:08;4.70;;;3.47;;
19794;SDS011;10057;59.402;17.866;2022-07-25T09:39:42;6.60;;;3.53;;
19794;SDS011;10057;59.402;17.866;2022-07-25T09:47:25;7.65;;;3.50;;
19794;SDS011;10057;59.402;17.866;2022-07-25T09:49:52;9.57;;;3.70;;
19794;SDS011;10057;59.402;17.866;2022-07-25T09:52:19;6.13;;;3.50;;
19794;SDS011;10057;59.402;17.866;2022-07-25T09:54:45;6.00;;;3.35;;
19794;SDS011;10057;59.402;17.866;2022-07-25T09:57:12;7.68;;;3.78;;
19794;SDS011;10057;59.402;17.866;2022-07-25T09:59:39;5.70;;;3.70;;
19794;SDS011;10057;59.402;17.866;2022-07-25T10:02:07;6.28;;;3.38;;
19794;SDS011;10057;59.402;17.866;2022-07-25T10:04:53;5.80;;;3.30;;
19794;SDS011;10057;59.402;17.866;2022-07-25T10:07:28;6.40;;;3.60;;
19794;SDS011;10057;59.402;17.866;2022-07-25T10:09:56;6.40;;;3.35;;
19794;SDS011;10057;59.402;17.866;2022-07-25T10:12:25;5.95;;;3.13;;
19794;SDS011;10057;59.402;17.866;2022-07-25T10:15:08;5.72;;;3.53;;
19794;SDS011;10057;59.402;17.866;2022-07-25T10:17:39;6.28;;;3.28;;
19794;SDS011;10057;59.402;17.866;2022-07-25T10:20:07;5.50;;;3.90;;
19794;SDS011;10057;59.402;17.866;2022-07-25T10:22:36;6.00;;;3.55;;
19794;SDS011;10057;59.402;17.866;2022-07-25T10:25:21;5.72;;;3.35;;
19794;SDS011;10057;59.402;17.866;2022-07-25T10:27:50;6.00;;;3.50;;
19794;SDS011;10057;59.402;17.866;2022-07-25T10:30:24;7.07;;;3.42;;
19794;SDS011;10057;59.402;17.866;2022-07-25T10:33:03;9.57;;;3.58;;
19794;SDS011;10057;59.402;17.866;2022-07-25T10:35:35;4.45;;;3.40;;
19794;SDS011;10057;59.402;17.866;2022-07-25T10:38:03;6.35;;;3.60;;
19794;SDS011;10057;59.402;17.866;2022-07-25T10:43:13;5.35;;;3.47;;
19794;SDS011;10057;59.402;17.866;2022-07-25T10:45:53;5.47;;;3.70;;
19794;SDS011;10057;59.402;17.866;2022-07-25T10:50:55;5.30;;;3.65;;
19794;SDS011;10057;59.402;17.866;2022-07-25T10:53:31;10.25;;;4.00;;
19794;SDS011;10057;59.402;17.866;2022-07-25T10:56:35;5.65;;;3.72;;
19794;SDS011;10057;59.402;17.866;2022-07-25T10:58:55;4.88;;;3.60;;
19794;SDS011;10057;59.402;17.866;2022-07-25T11:01:26;6.60;;;3.67;;
19794;SDS011;10057;59.402;17.866;2022-07-25T11:03:58;7.65;;;3.25;;
19794;SDS011;10057;59.402;17.866;2022-07-25T11:06:39;5.15;;;3.17;;
19794;SDS011;10057;59.402;17.866;2022-07-25T11:09:17;5.70;;;3.45;;
19794;SDS011;10057;59.402;17.866;2022-07-25T11:11:50;4.60;;;3.40;;
19794;SDS011;10057;59.402;17.866;2022-07-25T11:14:29;5.07;;;3.17;;
19794;SDS011;10057;59.402;17.866;2022-07-25T11:19:43;4.10;;;2.97;;
19794;SDS011;10057;59.402;17.866;2022-07-25T11:22:19;5.97;;;3.00;;
19794;SDS011;10057;59.402;17.866;2022-07-25T11:24:46;5.57;;;3.20;;
19794;SDS011;10057;59.402;17.866;2022-07-25T11:27:25;6.80;;;3.38;;
19794;SDS011;10057;59.402;17.866;2022-07-25T11:30:12;4.47;;;3.35;;
19794;SDS011;10057;59.402;17.866;2022-07-25T11:32:53;6.00;;;3.28;;
19794;SDS011;10057;59.402;17.866;2022-07-25T11:35:30;5.65;;;3.47;;
19794;SDS011;10057;59.402;17.866;2022-07-25T11:37:58;8.07;;;3.60;;
19794;SDS011;10057;59.402;17.866;2022-07-25T11:40:27;6.85;;;3.28;;
19794;SDS011;10057;59.402;17.866;2022-07-25T11:42:56;5.65;;;3.55;;
19794;SDS011;10057;59.402;17.866;2022-07-25T11:45:26;4.90;;;3.55;;
19794;SDS011;10057;59.402;17.866;2022-07-25T11:50:38;6.30;;;3.55;;
19794;SDS011;10057;59.402;17.866;2022-07-25T11:53:10;7.32;;;3.70;;
19794;SDS011;10057;59.402;17.866;2022-07-25T11:55:41;7.70;;;3.53;;
19794;SDS011;10057;59.402;17.866;2022-07-25T11:58:08;6.07;;;3.58;;
19794;SDS011;10057;59.402;17.866;2022-07-25T12:00:38;5.55;;;3.25;;
19794;SDS011;10057;59.402;17.866;2022-07-25T12:03:08;8.23;;;3.17;;
19794;SDS011;10057;59.402;17.866;2022-07-25T12:05:45;5.95;;;3.30;;
19794;SDS011;10057;59.402;17.866;2022-07-25T12:08:17;5.05;;;3.40;;
19794;SDS011;10057;59.402;17.866;2022-07-25T12:10:46;6.80;;;3.83;;
19794;SDS011;10057;59.402;17.866;2022-07-25T12:13:22;4.63;;;3.60;;
19794;SDS011;10057;59.402;17.866;2022-07-25T12:15:54;10.35;;;3.95;;
19794;SDS011;10057;59.402;17.866;2022-07-25T12:18:22;7.05;;;3.90;;
19794;SDS011;10057;59.402;17.866;2022-07-25T12:20:49;6.88;;;3.90;;
19794;SDS011;10057;59.402;17.866;2022-07-25T12:23:16;5.07;;;3.53;;
19794;SDS011;10057;59.402;17.866;2022-07-25T12:25:44;4.88;;;3.83;;
19794;SDS011;10057;59.402;17.866;2022-07-25T12:28:11;5.70;;;3.65;;
19794;SDS011;10057;59.402;17.866;2022-07-25T12:30:39;6.60;;;3.90;;
19794;SDS011;10057;59.402;17.866;2022-07-25T12:33:07;7.53;;;3.67;;
19794;SDS011;10057;59.402;17.866;2022-07-25T12:35:35;6.07;;;3.80;;
19794;SDS011;10057;59.402;17.866;2022-07-25T12:38:04;5.13;;;3.67;;
19794;SDS011;10057;59.402;17.866;2022-07-25T12:40:31;4.63;;;3.20;;
19794;SDS011;10057;59.402;17.866;2022-07-25T12:42:58;6.07;;;3.92;;
19794;SDS011;10057;59.402;17.866;2022-07-25T12:45:26;5.03;;;3.60;;
19794;SDS011;10057;59.402;17.866;2022-07-25T12:47:53;6.35;;;3.72;;
19794;SDS011;10057;59.402;17.866;2022-07-25T12:50:20;6.73;;;3.70;;
19794;SDS011;10057;59.402;17.866;2022-07-25T12:52:47;7.13;;;4.05;;
19794;SDS011;10057;59.402;17.866;2022-07-25T12:55:15;4.82;;;3.40;;
19794;SDS011;10057;59.402;17.866;2022-07-25T12:57:43;5.47;;;3.70;;
19794;SDS011;10057;59.402;17.866;2022-07-25T13:00:12;6.73;;;3.57;;
19794;SDS011;10057;59.402;17.866;2022-07-25T13:02:40;5.22;;;3.42;;
19794;SDS011;10057;59.402;17.866;2022-07-25T13:05:09;4.80;;;3.50;;
19794;SDS011;10057;59.402;17.866;2022-07-25T13:07:35;5.70;;;3.38;;
19794;SDS011;10057;59.402;17.866;2022-07-25T13:10:03;6.00;;;3.80;;
19794;SDS011;10057;59.402;17.866;2022-07-25T13:12:30;5.23;;;3.60;;
19794;SDS011;10057;59.402;17.866;2022-07-25T13:14:57;5.67;;;3.70;;
19794;SDS011;10057;59.402;17.866;2022-07-25T13:17:24;6.97;;;3.55;;
19794;SDS011;10057;59.402;17.866;2022-07-25T13:19:53;7.35;;;3.10;;
19794;SDS011;10057;59.402;17.866;2022-07-25T13:22:22;5.22;;;3.40;;
19794;SDS011;10057;59.402;17.866;2022-07-25T13:24:49;4.95;;;3.70;;
19794;SDS011;10057;59.402;17.866;2022-07-25T13:27:17;7.55;;;3.75;;
19794;SDS011;10057;59.402;17.866;2022-07-25T13:29:44;5.93;;;3.50;;
19794;SDS011;10057;59.402;17.866;2022-07-25T13:32:12;4.25;;;3.10;;
19794;SDS011;10057;59.402;17.866;2022-07-25T13:34:39;4.60;;;3.40;;
19794;SDS011;10057;59.402;17.866;2022-07-25T13:37:06;4.10;;;3.08;;
19794;SDS011;10057;59.402;17.866;2022-07-25T13:39:41;4.40;;;3.10;;
19794;SDS011;10057;59.402;17.866;2022-07-25T13:42:08;5.22;;;3.65;;
19794;SDS011;10057;59.402;17.866;2022-07-25T13:44:34;5.18;;;3.53;;
19794;SDS011;10057;59.402;17.866;2022-07-25T13:47:01;5.20;;;3.15;;
19794;SDS011;10057;59.402;17.866;2022-07-25T13:49:28;4.18;;;3.17;;
19794;SDS011;10057;59.402;17.866;2022-07-25T13:51:56;6.53;;;3.40;;
19794;SDS011;10057;59.402;17.866;2022-07-25T13:54:23;4.43;;;2.83;;
19794;SDS011;10057;59.402;17.866;2022-07-25T13:56:50;6.70;;;3.58;;
19794;SDS011;10057;59.402;17.866;2022-07-25T13:59:16;4.22;;;3.35;;
19794;SDS011;10057;59.402;17.866;2022-07-25T14:01:47;6.30;;;3.42;;
19794;SDS011;10057;59.402;17.866;2022-07-25T14:04:14;4.43;;;3.08;;
19794;SDS011;10057;59.402;17.866;2022-07-25T14:06:41;5.97;;;3.58;;
19794;SDS011;10057;59.402;17.866;2022-07-25T14:09:08;4.32;;;3.35;;
19794;SDS011;10057;59.402;17.866;2022-07-25T14:11:35;5.07;;;3.22;;
19794;SDS011;10057;59.402;17.866;2022-07-25T14:14:02;4.35;;;3.17;;
19794;SDS011;10057;59.402;17.866;2022-07-25T14:16:29;5.68;;;3.15;;
19794;SDS011;10057;59.402;17.866;2022-07-25T14:18:55;5.95;;;3.30;;
19794;SDS011;10057;59.402;17.866;2022-07-25T14:21:22;4.93;;;3.08;;
19794;SDS011;10057;59.402;17.866;2022-07-25T14:23:50;5.72;;;2.85;;
19794;SDS011;10057;59.402;17.866;2022-07-25T14:26:17;7.03;;;3.35;;
19794;SDS011;10057;59.402;17.866;2022-07-25T14:28:44;4.82;;;2.60;;
19794;SDS011;10057;59.402;17.866;2022-07-25T14:31:13;3.90;;;2.85;;
19794;SDS011;10057;59.402;17.866;2022-07-25T14:33:40;3.57;;;2.93;;
19794;SDS011;10057;59.402;17.866;2022-07-25T14:36:10;5.10;;;2.83;;
19794;SDS011;10057;59.402;17.866;2022-07-25T14:38:37;4.53;;;3.17;;
19794;SDS011;10057;59.402;17.866;2022-07-25T14:41:04;5.00;;;3.03;;
19794;SDS011;10057;59.402;17.866;2022-07-25T14:43:38;4.35;;;3.05;;
19794;SDS011;10057;59.402;17.866;2022-07-25T14:46:05;4.90;;;2.88;;
19794;SDS011;10057;59.402;17.866;2022-07-25T14:48:34;4.32;;;3.20;;
19794;SDS011;10057;59.402;17.866;2022-07-25T14:51:02;4.68;;;2.75;;
19794;SDS011;10057;59.402;17.866;2022-07-25T14:53:30;5.40;;;3.50;;
19794;SDS011;10057;59.402;17.866;2022-07-25T14:55:57;4.80;;;3.33;;
19794;SDS011;10057;59.402;17.866;2022-07-25T14:58:24;5.13;;;3.08;;